Noti, Oregon
Current Conditions -  °F | °C
As of 11:54 AM on Saturday 20 Dec 2014 (Local Time) from KEUG Reporting Station
Moderate Rain Moderate Rain  
Wind Chill: 51°   Ceiling: 6000
Heat Index: 51°   Visibility: 4mi
Dew Point: 48°   Wind: 16mph
Humidity: 89%   Direction: 180°S
Pressure: 29.78"   Gusts: NA
Location:  44.06°N, 123.45°W
Report Text: KEUG 201954Z 18014KT 4SM RA BR FEW020 BKN060 OVC080 11/09 A2978 RMK AO2 SLP084 P0015 T01060089
Loading
Personal Weather Stations






























Interactive Weather Map New forecast layout! Learn more

10-Day Weather Forecast

Advertisements
Track Severe Weather on mobile